createdAt,value
2018-12-21T00:00:10.994Z,4.83
2018-12-21T00:02:44.494Z,3.87
2018-12-21T00:05:16.807Z,4.87
2018-12-21T00:07:48.819Z,5.40
2018-12-21T00:10:20.922Z,6.07
2018-12-21T00:12:53.012Z,3.63
2018-12-21T00:15:25.264Z,5.27
2018-12-21T00:17:57.038Z,3.80
2018-12-21T00:20:29.129Z,2.80
2018-12-21T00:23:01.042Z,3.27
2018-12-21T00:25:33.341Z,6.00
2018-12-21T00:28:05.590Z,1.73
2018-12-21T00:33:12.586Z,3.95
2018-12-21T00:35:49.337Z,4.27
2018-12-21T00:38:26.478Z,2.97
2018-12-21T00:41:03.631Z,4.73
2018-12-21T00:43:41.939Z,3.67
2018-12-21T00:46:23.893Z,3.57
2018-12-21T00:48:56.579Z,3.50
2018-12-21T00:51:30.640Z,4.80
2018-12-21T00:54:02.392Z,4.33
2018-12-21T00:56:36.957Z,3.53
2018-12-21T00:59:08.552Z,4.57
2018-12-21T01:01:40.522Z,4.93
2018-12-21T01:04:12.562Z,5.73
2018-12-21T01:06:45.521Z,4.03
2018-12-21T01:09:17.578Z,5.33
2018-12-21T01:11:49.855Z,4.07
2018-12-21T01:14:22.174Z,4.55
2018-12-21T01:16:54.162Z,3.83
2018-12-21T01:19:26.120Z,3.70
2018-12-21T01:21:58.182Z,3.70
2018-12-21T01:24:30.067Z,4.70
2018-12-21T01:27:02.073Z,6.07
2018-12-21T01:29:34.302Z,4.23
2018-12-21T01:32:08.847Z,6.00
2018-12-21T01:34:40.392Z,5.63
2018-12-21T01:37:12.665Z,5.70
2018-12-21T01:39:44.647Z,4.03
2018-12-21T01:42:17.377Z,8.03
2018-12-21T01:44:48.905Z,6.30
2018-12-21T01:47:21.177Z,5.30
2018-12-21T01:49:53.268Z,3.47
2018-12-21T01:52:25.304Z,6.70
2018-12-21T01:54:58.950Z,3.80
2018-12-21T01:57:31.671Z,5.67
2018-12-21T02:00:04.281Z,6.27
2018-12-21T02:02:37.510Z,5.70
2018-12-21T02:05:09.473Z,6.57
2018-12-21T02:07:41.189Z,6.57
2018-12-21T02:10:13.225Z,4.87
2018-12-21T02:12:45.346Z,4.53
2018-12-21T02:15:17.554Z,5.00
2018-12-21T02:17:49.845Z,4.10
2018-12-21T02:20:21.945Z,5.27
2018-12-21T02:22:53.837Z,5.07
2018-12-21T02:25:25.799Z,8.83
2018-12-21T02:27:58.156Z,3.33
2018-12-21T02:30:30.241Z,5.67
2018-12-21T02:33:02.127Z,6.40
2018-12-21T02:35:34.300Z,3.10
2018-12-21T02:38:06.392Z,5.30
2018-12-21T02:40:38.853Z,5.60
2018-12-21T02:43:11.143Z,4.40
2018-12-21T02:45:43.117Z,5.57
2018-12-21T02:48:15.148Z,8.07
2018-12-21T02:50:47.422Z,5.37
2018-12-21T02:53:19.721Z,6.50
2018-12-21T02:55:52.055Z,5.37
2018-12-21T02:58:23.954Z,5.03
2018-12-21T03:00:55.952Z,4.90
2018-12-21T03:03:27.901Z,3.47
2018-12-21T03:06:00.153Z,5.23
2018-12-21T03:08:32.480Z,4.33
2018-12-21T03:11:04.688Z,4.43
2018-12-21T03:13:36.550Z,5.30
2018-12-21T03:16:08.495Z,4.60
2018-12-21T03:18:40.650Z,2.50
2018-12-21T03:21:12.628Z,4.83
2018-12-21T03:23:44.538Z,5.33
2018-12-21T03:26:16.516Z,4.67
2018-12-21T03:28:48.657Z,4.57
2018-12-21T03:31:20.831Z,3.83
2018-12-21T03:33:52.934Z,3.20
2018-12-21T03:36:24.933Z,4.03
2018-12-21T03:38:57.175Z,3.10
2018-12-21T03:41:29.510Z,3.17
2018-12-21T03:44:01.354Z,3.50
2018-12-21T03:46:33.452Z,3.10
2018-12-21T03:49:05.914Z,4.37
2018-12-21T03:51:37.718Z,3.93
2018-12-21T03:54:10.099Z,4.00
2018-12-21T03:56:42.049Z,2.50
2018-12-21T03:59:14.101Z,3.63
2018-12-21T04:01:46.340Z,2.03
2018-12-21T04:04:18.202Z,4.03
2018-12-21T04:06:50.160Z,2.77
2018-12-21T04:09:22.250Z,2.53
2018-12-21T04:11:54.123Z,2.77
2018-12-21T04:14:26.041Z,2.77
2018-12-21T04:16:58.245Z,2.07
2018-12-21T04:19:29.971Z,1.33
2018-12-21T04:22:02.077Z,1.87
2018-12-21T04:24:33.920Z,1.80
2018-12-21T04:27:05.755Z,1.03
2018-12-21T04:29:37.866Z,1.13
2018-12-21T04:32:10.213Z,0.90
2018-12-21T04:34:44.689Z,0.90
2018-12-21T04:37:16.429Z,1.60
2018-12-21T04:39:48.690Z,1.13
2018-12-21T04:42:20.675Z,1.07
2018-12-21T04:44:52.678Z,1.53
2018-12-21T04:47:24.967Z,1.00
2018-12-21T04:49:57.115Z,1.00
2018-12-21T04:52:29.144Z,0.70
2018-12-21T04:55:01.278Z,1.13
2018-12-21T04:57:33.292Z,0.80
2018-12-21T05:00:08.910Z,0.80
2018-12-21T05:02:42.053Z,3.33
2018-12-21T05:05:27.738Z,1.53
2018-12-21T05:08:02.197Z,1.00
2018-12-21T05:10:36.400Z,1.70
2018-12-21T05:13:10.306Z,0.80
2018-12-21T05:15:48.680Z,0.97
2018-12-21T05:18:26.797Z,0.90
2018-12-21T05:21:05.327Z,0.93
2018-12-21T05:23:37.449Z,0.90
2018-12-21T05:26:13.169Z,1.33
2018-12-21T05:28:45.552Z,1.00
2018-12-21T05:31:28.328Z,1.17
2018-12-21T05:33:54.819Z,2.57
2018-12-21T05:36:28.870Z,2.17
2018-12-21T05:39:10.180Z,0.70
2018-12-21T05:41:46.346Z,0.90
2018-12-21T05:44:18.770Z,0.93
2018-12-21T05:46:50.910Z,1.07
2018-12-21T05:49:23.379Z,0.80
2018-12-21T05:51:55.394Z,1.10
2018-12-21T05:54:27.571Z,1.30
2018-12-21T05:56:59.740Z,1.03
2018-12-21T05:59:31.890Z,0.80
2018-12-21T06:02:05.429Z,2.20
2018-12-21T06:04:39.769Z,0.80
2018-12-21T06:07:16.818Z,0.90
2018-12-21T06:09:49.015Z,0.90
2018-12-21T06:12:21.415Z,0.80
2018-12-21T06:14:53.203Z,1.63
2018-12-21T06:17:25.434Z,1.13
2018-12-21T06:19:57.417Z,1.90
2018-12-21T06:22:29.440Z,0.80
2018-12-21T06:25:01.589Z,0.80
2018-12-21T06:27:33.712Z,0.83
2018-12-21T06:30:06.139Z,0.70
2018-12-21T06:32:39.981Z,1.90
2018-12-21T06:35:12.130Z,0.80
2018-12-21T06:37:48.627Z,0.80
2018-12-21T06:40:20.274Z,0.83
2018-12-21T06:42:52.424Z,0.70
2018-12-21T06:45:24.272Z,1.10
2018-12-21T06:47:56.288Z,0.70
2018-12-21T06:50:28.529Z,0.80
2018-12-21T06:53:00.480Z,0.70
2018-12-21T06:55:32.602Z,1.03
2018-12-21T06:58:04.585Z,0.77
2018-12-21T07:00:36.845Z,2.53
2018-12-21T07:03:16.892Z,1.00
2018-12-21T07:05:43.533Z,0.70
2018-12-21T07:08:15.349Z,0.87
2018-12-21T07:10:47.493Z,0.70
2018-12-21T07:13:19.436Z,1.03
2018-12-21T07:15:51.610Z,2.13
2018-12-21T07:18:23.617Z,0.90
2018-12-21T07:20:55.616Z,0.80
2018-12-21T07:23:27.205Z,0.75
2018-12-21T07:25:59.069Z,1.03
2018-12-21T07:28:31.219Z,1.10
2018-12-21T07:31:03.320Z,0.80
2018-12-21T07:33:35.729Z,1.63
2018-12-21T07:36:08.595Z,2.33
2018-12-21T07:38:40.766Z,1.03
2018-12-21T07:41:12.857Z,1.27
2018-12-21T07:43:44.985Z,1.20
2018-12-21T07:46:19.236Z,1.37
2018-12-21T07:48:50.872Z,0.97
2018-12-21T07:51:23.037Z,1.17
2018-12-21T07:53:54.990Z,1.20
2018-12-21T07:56:27.008Z,1.07
2018-12-21T07:58:59.089Z,0.93
2018-12-21T08:01:31.109Z,1.50
2018-12-21T08:04:03.097Z,1.07
2018-12-21T08:06:34.997Z,0.97
2018-12-21T08:09:07.813Z,1.20
2018-12-21T08:11:39.956Z,0.90
2018-12-21T08:14:12.021Z,0.90
2018-12-21T08:16:43.449Z,0.80
2018-12-21T08:19:15.644Z,1.17
2018-12-21T08:21:47.717Z,1.10
2018-12-21T08:24:19.761Z,1.00
2018-12-21T08:26:51.917Z,2.80
2018-12-21T08:29:23.729Z,0.90
2018-12-21T08:31:55.679Z,2.70
2018-12-21T08:34:27.661Z,0.90
2018-12-21T08:36:59.876Z,1.07
2018-12-21T08:39:31.976Z,1.10
2018-12-21T08:42:04.125Z,0.80
2018-12-21T08:44:36.069Z,0.87
2018-12-21T08:47:08.161Z,4.23
2018-12-21T08:49:40.331Z,0.90
2018-12-21T08:52:12.146Z,0.90
2018-12-21T08:54:44.482Z,0.93
2018-12-21T08:57:16.520Z,0.93
2018-12-21T08:59:48.406Z,0.90
2018-12-21T09:02:21.182Z,1.00
2018-12-21T09:04:53.564Z,1.60
2018-12-21T09:07:25.712Z,0.80
2018-12-21T09:09:57.873Z,0.90
2018-12-21T09:12:30.282Z,0.90
2018-12-21T09:15:02.342Z,0.80
2018-12-21T09:17:36.538Z,1.13
2018-12-21T09:20:10.060Z,0.90
2018-12-21T09:22:42.297Z,2.53
2018-12-21T09:25:14.469Z,2.17
2018-12-21T09:27:46.768Z,2.30
2018-12-21T09:30:18.943Z,0.90
2018-12-21T09:32:51.025Z,0.80
2018-12-21T09:35:23.217Z,1.47
2018-12-21T09:37:55.286Z,0.70
2018-12-21T09:40:27.324Z,0.80
2018-12-21T09:42:59.842Z,0.83
2018-12-21T09:45:31.717Z,4.17
2018-12-21T09:48:04.023Z,1.30
2018-12-21T09:50:35.991Z,0.90
2018-12-21T09:53:08.119Z,0.80
2018-12-21T09:55:40.081Z,0.87
2018-12-21T09:58:12.274Z,1.17
2018-12-21T10:00:44.515Z,1.47
2018-12-21T10:03:16.534Z,0.80
2018-12-21T10:05:48.489Z,0.80
2018-12-21T10:08:20.745Z,0.90
2018-12-21T10:10:52.590Z,0.83
2018-12-21T10:13:24.693Z,1.53
2018-12-21T10:15:56.826Z,0.77
2018-12-21T10:18:29.145Z,1.37
2018-12-21T10:21:01.543Z,1.00
2018-12-21T10:23:33.523Z,1.00
2018-12-21T10:26:05.719Z,0.80
2018-12-21T10:28:37.652Z,0.70
2018-12-21T10:31:09.230Z,0.60
2018-12-21T10:33:41.232Z,0.60
2018-12-21T10:36:13.437Z,1.67
2018-12-21T10:38:45.269Z,0.87
2018-12-21T10:41:17.505Z,0.73
2018-12-21T10:43:49.637Z,1.43
2018-12-21T10:46:21.715Z,1.80
2018-12-21T10:48:53.775Z,1.50
2018-12-21T10:51:25.667Z,1.33
2018-12-21T10:53:57.681Z,0.50
2018-12-21T10:56:29.624Z,0.70
2018-12-21T10:59:01.972Z,1.33
2018-12-21T11:01:33.963Z,1.90
2018-12-21T11:04:06.022Z,0.67
2018-12-21T11:06:38.085Z,0.70
2018-12-21T11:09:10.108Z,0.60
2018-12-21T11:11:42.519Z,0.70
2018-12-21T11:14:14.066Z,0.63
2018-12-21T11:16:46.236Z,0.50
2018-12-21T11:19:18.621Z,0.60
2018-12-21T11:21:50.974Z,0.60
2018-12-21T11:24:23.120Z,0.60
2018-12-21T11:26:54.675Z,0.80
2018-12-21T11:29:26.541Z,0.60
2018-12-21T11:31:58.747Z,1.07
2018-12-21T11:34:30.938Z,0.70
2018-12-21T11:37:03.663Z,0.57
2018-12-21T11:39:35.686Z,0.73
2018-12-21T11:42:08.008Z,0.50
2018-12-21T11:44:39.827Z,0.50
2018-12-21T11:47:11.781Z,3.00
2018-12-21T11:49:43.782Z,0.50
2018-12-21T11:52:15.968Z,0.73
2018-12-21T11:54:48.270Z,0.50
2018-12-21T11:57:20.214Z,0.70
2018-12-21T11:59:52.391Z,1.63
2018-12-21T12:02:24.582Z,1.67
2018-12-21T12:04:56.458Z,0.47
2018-12-21T12:07:28.580Z,0.50
2018-12-21T12:10:00.984Z,0.60
2018-12-21T12:12:32.921Z,0.60
2018-12-21T12:15:06.443Z,2.10
2018-12-21T12:17:38.791Z,2.40
2018-12-21T12:20:10.759Z,0.57
2018-12-21T12:22:42.776Z,0.67
2018-12-21T12:25:14.843Z,1.50
2018-12-21T12:27:47.026Z,0.70
2018-12-21T12:30:18.962Z,0.60
2018-12-21T12:32:51.104Z,0.50
2018-12-21T12:35:23.570Z,0.60
2018-12-21T12:37:55.593Z,0.60
2018-12-21T12:40:27.514Z,0.60
2018-12-21T12:42:59.593Z,0.50
2018-12-21T12:45:32.042Z,0.60
2018-12-21T12:48:03.805Z,0.70
2018-12-21T12:50:35.850Z,1.50
2018-12-21T12:53:08.025Z,0.68
2018-12-21T12:55:40.026Z,0.60
2018-12-21T12:58:12.169Z,0.80
2018-12-21T13:00:44.139Z,0.80
2018-12-21T13:03:16.234Z,0.90
2018-12-21T13:05:48.306Z,0.60
2018-12-21T13:08:20.264Z,0.63
2018-12-21T13:10:52.348Z,1.80
2018-12-21T13:13:26.879Z,0.83
2018-12-21T13:15:58.642Z,0.90
2018-12-21T13:18:30.568Z,1.10
2018-12-21T13:21:02.547Z,0.80
2018-12-21T13:23:34.303Z,1.77
2018-12-21T13:26:06.258Z,0.80
2018-12-21T13:28:38.722Z,0.77
2018-12-21T13:31:10.748Z,0.80
2018-12-21T13:33:42.958Z,1.00
2018-12-21T13:36:15.267Z,0.73
2018-12-21T13:38:47.048Z,0.90
2018-12-21T13:41:18.921Z,0.90
2018-12-21T13:43:50.841Z,0.87
2018-12-21T13:46:22.904Z,0.60
2018-12-21T13:48:54.774Z,0.73
2018-12-21T13:51:26.964Z,0.70
2018-12-21T13:53:58.741Z,0.90
2018-12-21T13:56:31.026Z,0.90
2018-12-21T13:59:02.797Z,0.80
2018-12-21T14:01:35.086Z,0.87
2018-12-21T14:04:07.443Z,1.27
2018-12-21T14:06:39.540Z,2.30
2018-12-21T14:09:11.174Z,1.07
2018-12-21T14:11:43.287Z,0.90
2018-12-21T14:14:15.329Z,0.80
2018-12-21T14:16:47.311Z,3.87
2018-12-21T14:19:19.498Z,0.97
2018-12-21T14:21:51.730Z,0.70
2018-12-21T14:24:23.723Z,1.43
2018-12-21T14:26:55.799Z,0.80
2018-12-21T14:29:27.985Z,1.07
2018-12-21T14:31:59.617Z,0.83
2018-12-21T14:34:31.489Z,1.50
2018-12-21T14:37:03.829Z,0.90
2018-12-21T14:39:36.167Z,2.40
2018-12-21T14:42:08.063Z,0.97
2018-12-21T14:44:40.351Z,1.13
2018-12-21T14:47:12.382Z,1.03
2018-12-21T14:49:44.511Z,1.33
2018-12-21T14:52:16.422Z,2.67
2018-12-21T14:54:48.550Z,0.90
2018-12-21T14:57:20.702Z,1.40
2018-12-21T14:59:52.811Z,1.33
2018-12-21T15:02:25.614Z,1.67
2018-12-21T15:04:57.121Z,0.70
2018-12-21T15:07:29.163Z,0.80
2018-12-21T15:10:01.434Z,1.10
2018-12-21T15:12:33.722Z,2.03
2018-12-21T15:15:07.207Z,1.60
2018-12-21T15:17:38.807Z,2.00
2018-12-21T15:20:11.355Z,2.07
2018-12-21T15:22:42.864Z,2.40
2018-12-21T15:25:14.738Z,2.63
2018-12-21T15:27:46.813Z,4.50
2018-12-21T15:30:18.980Z,4.37
2018-12-21T15:32:50.981Z,3.43
2018-12-21T15:35:22.929Z,3.13
2018-12-21T15:37:54.761Z,2.50
2018-12-21T15:40:26.707Z,4.33
2018-12-21T15:42:58.702Z,3.93
2018-12-21T15:45:30.996Z,3.30
2018-12-21T15:48:02.597Z,5.53
2018-12-21T15:50:35.637Z,3.90
2018-12-21T15:53:07.703Z,5.00
2018-12-21T15:55:39.866Z,2.93
2018-12-21T15:58:12.053Z,4.47
2018-12-21T16:00:43.887Z,6.23
2018-12-21T16:03:15.934Z,4.93
2018-12-21T16:05:48.181Z,6.77
2018-12-21T16:08:20.341Z,6.90
2018-12-21T16:10:52.002Z,4.70
2018-12-21T16:13:23.946Z,4.40
2018-12-21T16:15:55.958Z,6.40
2018-12-21T16:18:28.345Z,7.03
2018-12-21T16:21:00.226Z,6.73
2018-12-21T16:23:32.305Z,3.27
2018-12-21T16:26:04.280Z,4.53
2018-12-21T16:28:36.475Z,3.37
2018-12-21T16:31:09.114Z,3.47
2018-12-21T16:33:40.837Z,6.53
2018-12-21T16:36:12.889Z,4.97
2018-12-21T16:38:44.994Z,4.00
2018-12-21T16:41:17.214Z,7.43
2018-12-21T16:43:49.619Z,8.60
2018-12-21T16:46:21.638Z,7.27
2018-12-21T16:48:53.619Z,9.60
2018-12-21T16:51:25.706Z,9.83
2018-12-21T16:53:57.688Z,8.73
2018-12-21T16:56:29.842Z,8.73
2018-12-21T16:59:02.083Z,9.47
2018-12-21T17:01:33.897Z,9.50
2018-12-21T17:04:05.829Z,11.27
2018-12-21T17:06:37.961Z,9.77
2018-12-21T17:09:09.896Z,7.07
2018-12-21T17:11:41.881Z,9.23
2018-12-21T17:14:13.883Z,9.53
2018-12-21T17:16:46.107Z,11.17
2018-12-21T17:19:20.408Z,6.90
2018-12-21T17:21:53.296Z,8.93
2018-12-21T17:24:25.064Z,10.27
2018-12-21T17:26:57.148Z,10.43
2018-12-21T17:29:29.724Z,10.77
2018-12-21T17:32:01.468Z,11.40
2018-12-21T17:34:33.758Z,10.40
2018-12-21T17:37:05.879Z,13.13
2018-12-21T17:39:38.063Z,10.60
2018-12-21T17:42:10.461Z,10.53
2018-12-21T17:44:42.690Z,12.23
2018-12-21T17:49:45.013Z,12.20
2018-12-21T17:52:17.550Z,11.33
2018-12-21T17:54:50.035Z,9.43
2018-12-21T17:57:23.391Z,10.40
2018-12-21T17:59:55.952Z,11.67
2018-12-21T18:02:28.454Z,10.20
2018-12-21T18:05:00.482Z,11.20
2018-12-21T18:07:32.683Z,11.97
2018-12-21T18:10:05.541Z,14.50
2018-12-21T18:12:41.051Z,13.07
2018-12-21T18:15:12.867Z,13.80
2018-12-21T18:17:44.722Z,13.43
2018-12-21T18:20:16.854Z,14.93
2018-12-21T18:22:51.657Z,12.33
2018-12-21T18:25:26.644Z,13.62
2018-12-21T18:28:01.190Z,13.30
2018-12-21T18:30:37.574Z,11.17
2018-12-21T18:33:11.158Z,13.37
2018-12-21T18:35:43.474Z,14.13
2018-12-21T18:38:19.042Z,15.80
2018-12-21T18:40:51.161Z,10.13
2018-12-21T18:43:23.550Z,11.37
2018-12-21T18:45:55.547Z,14.57
2018-12-21T18:48:27.373Z,16.47
2018-12-21T18:50:59.601Z,13.77
2018-12-21T18:53:31.772Z,12.77
2018-12-21T18:56:05.847Z,10.47
2018-12-21T18:58:38.278Z,10.87
2018-12-21T19:01:10.649Z,12.37
2018-12-21T19:03:42.602Z,10.93
2018-12-21T19:06:14.717Z,11.73
2018-12-21T19:08:46.437Z,12.33
2018-12-21T19:11:18.516Z,13.83
2018-12-21T19:13:50.821Z,12.67
2018-12-21T19:16:22.821Z,14.83
2018-12-21T19:18:54.901Z,12.30
2018-12-21T19:21:27.100Z,12.03
2018-12-21T19:23:59.168Z,16.67
2018-12-21T19:26:31.081Z,14.77
2018-12-21T19:29:03.206Z,9.93
2018-12-21T19:31:35.258Z,14.33
2018-12-21T19:34:07.315Z,13.93
2018-12-21T19:36:39.341Z,15.33
2018-12-21T19:39:11.936Z,16.97
2018-12-21T19:41:44.322Z,14.80
2018-12-21T19:44:16.494Z,16.83
2018-12-21T19:46:48.643Z,17.47
2018-12-21T19:49:21.214Z,17.13
2018-12-21T19:51:52.868Z,15.77
2018-12-21T19:54:24.782Z,16.80
2018-12-21T19:57:05.686Z,14.50
2018-12-21T19:59:37.821Z,15.77
2018-12-21T20:02:10.568Z,18.20
2018-12-21T20:04:44.442Z,17.30
2018-12-21T20:07:16.165Z,17.07
2018-12-21T20:09:48.143Z,18.43
2018-12-21T20:12:19.922Z,17.43
2018-12-21T20:14:52.071Z,17.47
2018-12-21T20:17:23.888Z,19.40
2018-12-21T20:19:55.891Z,17.43
2018-12-21T20:22:28.149Z,13.13
2018-12-21T20:25:00.203Z,14.90
2018-12-21T20:27:32.228Z,14.13
2018-12-21T20:30:04.444Z,17.13
2018-12-21T20:32:36.833Z,19.93
2018-12-21T20:35:09.165Z,16.00
2018-12-21T20:37:40.987Z,20.07
2018-12-21T20:40:13.294Z,15.97
2018-12-21T20:42:44.911Z,17.50
2018-12-21T20:45:16.935Z,12.87
2018-12-21T20:47:49.104Z,15.87
2018-12-21T20:52:50.940Z,17.33
2018-12-21T20:55:22.787Z,14.23
2018-12-21T20:58:00.116Z,17.70
2018-12-21T21:00:34.860Z,18.13
2018-12-21T21:03:06.708Z,20.47
2018-12-21T21:05:38.548Z,17.47
2018-12-21T21:08:10.768Z,17.43
2018-12-21T21:10:43.081Z,17.40
2018-12-21T21:13:19.253Z,18.80
2018-12-21T21:15:48.978Z,16.17
2018-12-21T21:18:20.930Z,21.87
2018-12-21T21:20:52.837Z,16.30
2018-12-21T21:23:24.874Z,17.20
2018-12-21T21:25:56.947Z,20.60
2018-12-21T21:28:29.097Z,19.97
2018-12-21T21:31:01.188Z,18.27
2018-12-21T21:33:33.236Z,19.93
2018-12-21T21:36:05.377Z,17.67
2018-12-21T21:38:37.412Z,16.00
2018-12-21T21:41:09.508Z,17.50
2018-12-21T21:43:41.637Z,13.73
2018-12-21T21:46:13.803Z,19.23
2018-12-21T21:48:46.227Z,24.00
2018-12-21T21:51:18.281Z,16.97
2018-12-21T21:53:50.257Z,20.50
2018-12-21T21:56:22.346Z,20.63
2018-12-21T21:58:54.373Z,18.57
2018-12-21T22:01:26.229Z,18.10
2018-12-21T22:03:58.481Z,22.73
2018-12-21T22:06:30.883Z,17.47
2018-12-21T22:09:02.816Z,19.87
2018-12-21T22:11:34.470Z,23.03
2018-12-21T22:14:06.418Z,20.75
2018-12-21T22:16:38.657Z,18.90
2018-12-21T22:19:10.593Z,18.70
2018-12-21T22:21:42.730Z,15.97
2018-12-21T22:24:14.671Z,16.93
2018-12-21T22:26:46.563Z,19.70
2018-12-21T22:29:18.477Z,17.67
2018-12-21T22:31:50.544Z,19.03
2018-12-21T22:34:22.745Z,21.80
2018-12-21T22:36:54.923Z,21.30
2018-12-21T22:39:26.921Z,23.17
2018-12-21T22:41:59.034Z,20.67
2018-12-21T22:44:31.179Z,17.77
2018-12-21T22:47:03.331Z,19.53
2018-12-21T22:49:35.367Z,18.27
2018-12-21T22:52:07.223Z,17.57
2018-12-21T22:54:39.026Z,20.47
2018-12-21T22:57:10.945Z,16.57
2018-12-21T22:59:42.848Z,18.50
2018-12-21T23:02:15.086Z,18.67
2018-12-21T23:04:47.049Z,20.83
2018-12-21T23:07:19.254Z,13.90
2018-12-21T23:09:51.127Z,17.57
2018-12-21T23:12:23.192Z,21.63
2018-12-21T23:14:55.267Z,20.27
2018-12-21T23:17:27.392Z,18.60
2018-12-21T23:19:59.708Z,23.50
2018-12-21T23:22:31.973Z,16.50
2018-12-21T23:25:04.468Z,17.10
2018-12-21T23:27:36.319Z,18.67
2018-12-21T23:30:09.470Z,23.33
2018-12-21T23:32:41.596Z,17.03
2018-12-21T23:35:13.643Z,18.40
2018-12-21T23:37:45.113Z,21.20
2018-12-21T23:40:17.186Z,22.70
2018-12-21T23:42:49.211Z,21.37
2018-12-21T23:45:21.234Z,22.20
2018-12-21T23:47:53.529Z,26.00
2018-12-21T23:50:25.803Z,22.53
2018-12-21T23:52:59.974Z,20.40
2018-12-21T23:55:31.720Z,18.37
2018-12-21T23:58:03.769Z,19.90
